Time;durP1;ratioP1;P1;durP2;ratioP2;P2;SDS_P1;SDS_P2;PMS_P1;PMS_P2;Temp;Humidity;BMP_temperature;BMP_pressure;BME280_temperature;BME280_humidity;BME280_pressure;Samples;Min_cycle;Max_cycle;Signal;HPM_P1;HPM_P2
2021/05/14 00:00:00;;;;;;;11.97;10.65;;;;;;;13.93;67.61;99609.23;1679156;83;21078;-92
2021/05/14 00:02:28;;;;;;;8.98;8.18;;;;;;;13.86;67.81;99611.19;1681802;85;21053;-94
2021/05/14 00:04:56;;;;;;;9.20;8.30;;;;;;;13.88;67.96;99612.30;1660697;84;21106;-93
2021/05/14 00:07:22;;;;;;;10.72;6.58;;;;;;;13.93;67.64;99618.62;1659525;84;21111;-93
2021/05/14 00:09:48;;;;;;;7.17;6.58;;;;;;;13.91;67.29;99612.67;1679823;84;21028;-92
2021/05/14 00:12:15;;;;;;;5.50;5.20;;;;;;;13.88;67.70;99622.52;1683934;84;21298;-94
2021/05/14 00:14:41;;;;;;;5.03;4.62;;;;;;;13.81;67.86;99621.26;1681964;84;21243;-95
2021/05/14 00:17:07;;;;;;;3.52;3.20;;;;;;;13.77;67.77;99628.13;1678950;84;21136;-93
2021/05/14 00:19:33;;;;;;;8.98;3.75;;;;;;;13.85;67.38;99616.80;1678573;84;21644;-93
2021/05/14 00:21:59;;;;;;;3.25;3.02;;;;;;;13.88;67.26;99613.15;1673640;84;21083;-93
2021/05/14 00:24:29;;;;;;;3.30;3.10;;;;;;;13.81;67.13;99618.58;1694586;84;21101;-94
2021/05/14 00:26:59;;;;;;;2.67;2.58;;;;;;;13.81;66.96;99616.44;1672207;84;21190;-93
2021/05/14 00:29:26;;;;;;;5.55;3.77;;;;;;;13.75;67.33;99604.77;1679128;84;21067;-92
2021/05/14 00:31:54;;;;;;;2.98;2.70;;;;;;;13.81;66.79;99606.53;1658911;85;21157;-93
2021/05/14 00:34:21;;;;;;;3.67;3.37;;;;;;;13.93;66.65;99611.92;1682702;83;21579;-93
2021/05/14 00:36:48;;;;;;;3.60;3.40;;;;;;;13.96;66.39;99606.64;1652642;85;21112;-92
2021/05/14 00:39:15;;;;;;;4.50;4.28;;;;;;;13.92;66.43;99602.27;1663404;84;21063;-93
2021/05/14 00:41:41;;;;;;;4.03;3.58;;;;;;;13.83;66.44;99608.98;1671221;84;21705;-91
2021/05/14 00:44:30;;;;;;;3.65;3.45;;;;;;;13.85;66.48;99608.23;1666015;84;21126;-92
2021/05/14 00:47:04;;;;;;;3.83;3.50;;;;;;;13.89;66.51;99612.08;1664899;84;21055;-92
2021/05/14 00:49:30;;;;;;;5.20;4.40;;;;;;;13.96;66.38;99607.45;1660541;84;21799;-93
2021/05/14 00:51:58;;;;;;;3.83;3.52;;;;;;;13.95;66.18;99606.34;1667249;84;21174;-92
2021/05/14 00:54:30;;;;;;;4.90;3.80;;;;;;;13.89;66.12;99610.74;1668026;85;21141;-94
2021/05/14 00:57:00;;;;;;;4.42;3.15;;;;;;;13.87;66.39;99610.69;1677376;84;21108;-92
2021/05/14 00:59:27;;;;;;;3.77;3.47;;;;;;;13.86;66.48;99607.70;1680505;84;21082;-92
2021/05/14 01:01:57;;;;;;;4.20;3.35;;;;;;;13.90;66.23;99608.88;1668051;82;21075;-85
2021/05/14 01:04:24;;;;;;;3.58;3.25;;;;;;;13.94;66.01;99606.06;1673465;85;21027;-91
2021/05/14 01:06:53;;;;;;;3.62;3.52;;;;;;;13.90;66.44;99607.53;1661390;85;21187;-94
2021/05/14 01:09:19;;;;;;;4.37;3.95;;;;;;;13.87;66.42;99606.67;1653641;86;21616;-93
2021/05/14 01:11:50;;;;;;;3.00;2.80;;;;;;;13.79;66.54;99609.15;1663197;84;22123;-93
2021/05/14 01:14:16;;;;;;;4.70;4.30;;;;;;;13.86;66.38;99593.77;1681562;83;21748;-93
2021/05/14 01:16:43;;;;;;;5.92;3.72;;;;;;;13.88;66.22;99594.39;1690307;83;21170;-93
2021/05/14 01:19:09;;;;;;;3.98;3.67;;;;;;;13.80;66.53;99595.50;1693596;83;21115;-93
2021/05/14 01:21:36;;;;;;;;;;;;;;;13.70;66.95;99593.91;1702806;83;21067;-93
2021/05/14 01:24:04;;;;;;;5.53;3.55;;;;;;;13.76;66.82;99595.67;1668952;84;20146;-93
2021/05/14 01:26:30;;;;;;;5.75;4.45;;;;;;;13.77;66.91;99592.49;1700112;82;21092;-93
2021/05/14 01:28:57;;;;;;;7.67;4.62;;;;;;;13.76;66.70;99592.99;1686914;83;21112;-92
2021/05/14 01:31:26;;;;;;;6.33;5.15;;;;;;;13.71;66.81;99588.86;1666352;84;21214;-93
2021/05/14 01:33:52;;;;;;;4.75;4.35;;;;;;;13.70;67.06;99603.28;1693565;82;21016;-92
2021/05/14 01:36:18;;;;;;;3.83;3.62;;;;;;;13.74;66.86;99597.77;1681059;82;21018;-93
2021/05/14 01:38:46;;;;;;;4.90;3.95;;;;;;;13.86;66.47;99599.13;1676152;84;21071;-93
2021/05/14 01:41:13;;;;;;;5.80;5.17;;;;;;;13.85;66.33;99588.67;1681557;84;21130;-93
2021/05/14 01:43:40;;;;;;;9.48;5.20;;;;;;;13.82;66.27;99593.45;1675615;84;21062;-93
2021/05/14 01:46:06;;;;;;;7.87;5.28;;;;;;;13.81;66.60;99590.98;1661644;84;21132;-92
2021/05/14 01:48:33;;;;;;;5.70;4.78;;;;;;;13.78;66.49;99592.23;1678808;84;21146;-93
2021/05/14 01:51:11;;;;;;;6.78;4.65;;;;;;;13.79;66.48;99592.55;1670669;84;21152;-93
2021/05/14 01:53:37;;;;;;;5.45;4.95;;;;;;;13.84;66.18;99591.85;1662504;84;21144;-93
2021/05/14 01:56:07;;;;;;;5.97;5.35;;;;;;;13.80;66.08;99585.32;1644724;84;21751;-92
2021/05/14 01:58:36;;;;;;;6.58;5.90;;;;;;;13.74;66.35;99583.56;1650579;84;21165;-92
2021/05/14 02:01:04;;;;;;;6.33;5.72;;;;;;;13.72;66.40;99580.30;1682675;84;21110;-93
2021/05/14 02:03:33;;;;;;;6.47;5.72;;;;;;;13.74;66.21;99589.73;1656451;85;22293;-93
2021/05/14 02:06:00;;;;;;;6.45;5.95;;;;;;;13.83;66.05;99593.72;1682197;84;21230;-93
2021/05/14 02:08:26;;;;;;;7.05;6.53;;;;;;;13.80;66.17;99593.36;1681416;84;21126;-93
2021/05/14 02:10:53;;;;;;;8.58;7.62;;;;;;;13.74;66.22;99585.70;1668052;84;21785;-92
2021/05/14 02:13:19;;;;;;;;;;;;;;;13.72;66.18;99586.46;1684168;84;21146;-93
2021/05/14 02:15:45;;;;;;;9.53;7.83;;;;;;;13.69;66.38;99590.11;1692284;84;20226;-93
2021/05/14 02:18:12;;;;;;;8.58;6.67;;;;;;;13.67;66.52;99586.31;1669560;84;21205;-93
2021/05/14 02:20:38;;;;;;;10.15;7.15;;;;;;;13.77;66.32;99583.12;1686280;81;21006;-92
2021/05/14 02:23:04;;;;;;;13.55;8.60;;;;;;;13.79;66.07;99587.72;1699443;80;20974;-89
2021/05/14 02:25:31;;;;;;;9.80;8.78;;;;;;;13.77;66.12;99580.44;1715873;82;20960;-93
2021/05/14 02:27:57;;;;;;;20.25;11.05;;;;;;;13.71;66.25;99574.13;1714845;79;21088;-87
2021/05/14 02:30:24;;;;;;;20.32;11.05;;;;;;;13.69;66.25;99576.19;1713236;79;21103;-93
2021/05/14 02:32:50;;;;;;;24.72;10.20;;;;;;;13.67;66.14;99575.61;1712954;82;21128;-92
2021/05/14 02:35:17;;;;;;;;;;;;;;;13.76;65.97;99571.56;1718279;79;20988;-92
2021/05/14 02:37:43;;;;;;;46.95;14.75;;;;;;;13.79;65.84;99575.14;1713044;82;20181;-92
2021/05/14 02:40:13;;;;;;;36.03;14.73;;;;;;;13.73;65.84;99573.38;1714303;82;20997;-93
2021/05/14 02:42:40;;;;;;;59.63;21.70;;;;;;;13.74;65.89;99578.20;1719181;83;21095;-93
2021/05/14 02:45:10;;;;;;;67.60;23.12;;;;;;;13.72;65.79;99572.27;1702501;83;21008;-93
2021/05/14 02:47:41;;;;;;;70.65;20.17;;;;;;;13.72;65.83;99578.95;1708785;83;21073;-92
2021/05/14 02:52:33;;;;;;;42.30;16.57;;;;;;;13.93;65.26;99566.37;1880520;75;22924;-93
2021/05/14 02:55:00;;;;;;;61.42;20.35;;;;;;;13.92;65.00;99566.09;1836806;77;21633;-94
2021/05/14 02:57:28;;;;;;;56.42;19.40;;;;;;;13.91;65.04;99559.09;1801890;77;21022;-94
2021/05/14 02:59:54;;;;;;;49.75;17.20;;;;;;;13.92;64.85;99569.27;1782946;78;21094;-92
2021/05/14 03:02:20;;;;;;;31.62;14.85;;;;;;;13.88;64.60;99566.77;1787459;78;21061;-94
2021/05/14 03:04:46;;;;;;;29.87;12.23;;;;;;;13.79;64.55;99566.30;1807347;78;21042;-94
2021/05/14 03:07:13;;;;;;;31.30;13.80;;;;;;;13.79;64.68;99562.28;1809569;78;22044;-93
2021/05/14 03:09:39;;;;;;;48.55;15.90;;;;;;;13.87;64.71;99567.83;1806436;78;21114;-94
2021/05/14 03:12:06;;;;;;;47.85;17.62;;;;;;;13.96;64.37;99558.42;1794110;77;21130;-92
2021/05/14 03:14:33;;;;;;;52.35;20.48;;;;;;;13.99;64.26;99561.46;1783201;79;21081;-91
2021/05/14 03:17:02;;;;;;;44.23;18.00;;;;;;;14.04;64.00;99568.80;1735787;81;21649;-92
2021/05/14 03:19:29;;;;;;;42.73;17.67;;;;;;;14.11;64.02;99567.34;1781928;78;21623;-89
2021/05/14 03:21:55;;;;;;;67.80;22.05;;;;;;;14.17;63.81;99569.12;1779152;79;21099;-94
2021/05/14 03:24:21;;;;;;;56.83;20.02;;;;;;;14.00;63.51;99526.09;1745873;80;21065;-93
2021/05/14 03:26:51;;;;;;;62.05;20.27;;;;;;;14.24;63.47;99562.30;1751152;80;21625;-93
2021/05/14 03:29:15;;;;;;;45.15;16.65;;;;;;;14.28;63.21;99564.80;1721083;82;21108;-93
2021/05/14 03:31:42;;;;;;;45.95;15.35;;;;;;;14.40;62.98;99558.41;1764397;80;21609;-93
2021/05/14 03:34:11;;;;;;;42.10;16.70;;;;;;;14.59;62.30;99566.37;1687148;82;21023;-94
2021/05/14 03:36:38;;;;;;;26.10;12.90;;;;;;;14.63;61.91;99564.05;1686084;84;21200;-93
2021/05/14 03:39:11;;;;;;;37.88;12.93;;;;;;;14.60;62.02;99571.51;1683058;84;21148;-93
2021/05/14 03:44:11;;;;;;;14.78;8.93;;;;;;;14.55;62.08;99568.67;1697117;82;21708;-93
2021/05/14 03:46:39;;;;;;;16.20;7.92;;;;;;;14.56;62.12;99568.98;1716698;81;21068;-93
2021/05/14 03:49:06;;;;;;;14.47;8.95;;;;;;;14.57;62.13;99567.13;1687717;81;21079;-93
2021/05/14 03:51:37;;;;;;;19.40;10.05;;;;;;;14.58;62.14;99567.44;1747002;81;21085;-92
2021/05/14 03:54:04;;;;;;;21.97;11.08;;;;;;;14.57;62.08;99565.27;1734879;81;21684;-93
2021/05/14 03:56:32;;;;;;;31.85;11.83;;;;;;;14.54;62.16;99563.53;1722841;81;21644;-93
2021/05/14 03:59:00;;;;;;;10.85;7.33;;;;;;;14.56;62.07;99566.30;1700265;84;21079;-91
2021/05/14 04:01:30;;;;;;;25.45;11.08;;;;;;;14.66;62.00;99564.39;1695986;83;21145;-91
2021/05/14 04:03:56;;;;;;;43.70;14.43;;;;;;;14.70;61.95;99569.58;1715844;82;21102;-93
2021/05/14 04:06:24;;;;;;;50.15;17.77;;;;;;;14.67;61.97;99567.35;1730930;82;21030;-93
2021/05/14 04:08:53;;;;;;;27.20;11.43;;;;;;;14.67;61.81;99565.20;1734007;77;21071;-91
2021/05/14 04:11:51;;;;;;;44.95;17.02;;;;;;;14.66;61.96;99560.91;1722154;82;21106;-92
2021/05/14 04:16:42;;;;;;;104.30;29.45;;;;;;;14.68;61.84;99561.48;1709761;82;21183;-93
2021/05/14 04:19:10;;;;;;;69.65;22.95;;;;;;;14.69;61.63;99559.08;1701484;81;21773;-93
2021/05/14 04:21:37;;;;;;;;;;;;;;;14.70;61.55;99556.16;1716620;82;21134;-92
2021/05/14 04:24:05;;;;;;;38.25;15.63;;;;;;;14.73;61.67;99561.07;1731714;82;20639;-93
2021/05/14 04:26:32;;;;;;;65.57;20.32;;;;;;;14.71;61.93;99561.83;1746241;80;21049;-93
2021/05/14 04:28:59;;;;;;;75.25;20.05;;;;;;;14.79;61.38;99552.08;1715651;81;21263;-93
2021/05/14 04:31:27;;;;;;;57.93;18.80;;;;;;;14.98;61.21;99553.28;1748995;80;21042;-91
2021/05/14 04:33:53;;;;;;;52.62;17.32;;;;;;;15.13;60.91;99552.25;1722033;80;21043;-92
2021/05/14 04:36:19;;;;;;;44.63;16.05;;;;;;;15.26;60.59;99542.31;1727441;81;21117;-93
2021/05/14 04:38:45;;;;;;;;;;;;;;;15.36;60.17;99544.64;1747229;80;21061;-93
2021/05/14 04:41:11;;;;;;;85.10;23.80;;;;;;;15.43;59.46;99545.05;1749312;80;20226;-92
2021/05/14 04:43:38;;;;;;;67.72;23.35;;;;;;;15.36;59.31;99545.98;1755201;80;21123;-92
2021/05/14 04:46:04;;;;;;;73.57;20.90;;;;;;;15.35;59.54;99538.16;1722699;81;21024;-92
2021/05/14 04:48:30;;;;;;;59.40;20.15;;;;;;;15.39;59.61;99542.03;1757445;80;21134;-93
2021/05/14 04:50:56;;;;;;;;;;;;;;;15.50;59.67;99537.64;1726119;82;21134;-91
2021/05/14 04:53:29;;;;;;;38.75;14.30;;;;;;;15.68;59.09;99545.50;1738053;82;20201;-92
2021/05/14 04:55:56;;;;;;;37.23;11.35;;;;;;;15.87;58.00;99537.27;1730030;82;21068;-90
2021/05/14 04:58:22;;;;;;;39.18;11.90;;;;;;;16.39;57.11;99541.06;1710838;82;21071;-90
2021/05/14 05:00:48;;;;;;;42.30;14.63;;;;;;;17.16;55.67;99538.09;1716261;83;21027;-91
2021/05/14 05:03:15;;;;;;;52.43;17.10;;;;;;;17.87;52.20;99535.33;1740015;81;21194;-90
2021/05/14 05:05:41;;;;;;;63.30;16.60;;;;;;;18.39;50.61;99533.06;1731541;81;21695;-92
2021/05/14 05:08:07;;;;;;;24.12;9.25;;;;;;;18.85;48.58;99525.24;1716641;83;21087;-92
2021/05/14 05:10:35;;;;;;;47.67;16.48;;;;;;;19.50;48.15;99521.70;1723969;81;21716;-90
2021/05/14 05:13:01;;;;;;;50.85;16.65;;;;;;;19.50;48.15;99521.70;1725987;81;21126;-91
2021/05/14 05:15:27;;;;;;;47.73;15.63;;;;;;;19.77;47.57;99528.79;1727490;81;21263;-90
2021/05/14 05:17:54;;;;;;;52.20;17.35;;;;;;;19.90;46.40;99528.26;1752463;80;21152;-91
2021/05/14 05:20:21;;;;;;;27.02;9.10;;;;;;;19.92;46.24;99526.09;1738482;81;21111;-92
2021/05/14 05:22:47;;;;;;;38.67;14.65;;;;;;;19.78;45.43;99521.77;1753705;80;21085;-91
2021/05/14 05:25:14;;;;;;;29.90;10.53;;;;;;;19.09;46.68;99520.22;1721815;82;20989;-90
2021/05/14 05:27:41;;;;;;;25.00;9.33;;;;;;;18.42;48.13;99510.42;1715808;80;20992;-90
2021/05/14 05:30:09;;;;;;;18.92;8.58;;;;;;;18.20;49.38;99511.08;1731307;81;21158;-91
2021/05/14 05:32:35;;;;;;;28.90;10.18;;;;;;;18.06;49.58;99505.30;1730956;81;21668;-90
2021/05/14 05:35:01;;;;;;;;;;;;;;;18.06;50.36;99506.13;1733509;81;21074;-90
2021/05/14 05:37:27;;;;;;;78.30;24.75;;;;;;;17.97;49.92;99509.02;1713884;81;20337;-91
2021/05/14 05:39:54;;;;;;;;;;;;;;;17.81;50.57;99499.95;1716748;81;21616;-91
2021/05/14 05:42:20;;;;;;;55.28;17.82;;;;;;;17.82;50.81;99498.05;1724369;81;20234;-91
2021/05/14 05:44:46;;;;;;;33.58;11.40;;;;;;;17.80;50.77;99502.89;1721393;82;21577;-91
2021/05/14 05:47:12;;;;;;;51.65;17.70;;;;;;;17.72;50.50;99505.52;1740436;81;21671;-91
2021/05/14 05:49:40;;;;;;;29.20;11.68;;;;;;;17.55;51.35;99505.63;1727657;80;21136;-91
2021/05/14 05:52:06;;;;;;;;;;;;;;;17.55;51.35;99505.63;1754812;80;21095;-91
2021/05/14 05:54:32;;;;;;;51.25;15.93;;;;;;;17.49;51.77;99498.03;1727849;82;20867;-91
2021/05/14 05:57:00;;;;;;;24.32;11.40;;;;;;;17.37;52.25;99497.38;1762776;80;21105;-89
2021/05/14 05:59:27;;;;;;;64.82;17.77;;;;;;;17.34;52.66;99491.69;1762141;80;21588;-90
2021/05/14 06:01:53;;;;;;;80.22;22.93;;;;;;;17.32;52.92;99496.78;1760160;80;21155;-90
2021/05/14 06:04:21;;;;;;;53.23;18.20;;;;;;;17.36;53.02;99492.25;1797460;78;21066;-91
2021/05/14 06:06:47;;;;;;;44.67;13.50;;;;;;;17.36;52.78;99489.55;1808789;78;21168;-92
2021/05/14 06:09:13;;;;;;;36.88;12.03;;;;;;;17.44;52.79;99491.78;1806667;78;21736;-91
2021/05/14 06:11:41;;;;;;;22.60;10.80;;;;;;;17.65;52.35;99498.17;1793169;78;21073;-90
2021/05/14 06:14:08;;;;;;;18.17;7.80;;;;;;;17.87;51.85;99485.46;1796072;78;21084;-91
2021/05/14 06:16:34;;;;;;;21.33;8.68;;;;;;;18.09;50.55;99474.58;1806464;78;21750;-90
2021/05/14 06:21:29;;;;;;;17.23;7.92;;;;;;;18.75;50.29;99461.73;1766628;78;21173;-91
2021/05/14 06:23:55;;;;;;;7.62;5.15;;;;;;;19.31;49.12;99463.30;1822166;78;20993;-91
2021/05/14 06:26:21;;;;;;;;;;;;;;;19.88;47.24;99456.06;1804147;78;21173;-91
2021/05/14 06:28:49;;;;;;;12.10;6.47;;;;;;;20.46;46.12;99460.30;1789461;78;20251;-88
2021/05/14 06:31:15;;;;;;;;;;;;;;;20.79;44.91;99467.80;1789707;78;21261;-90
2021/05/14 06:33:41;;;;;;;58.65;14.15;;;;;;;21.15;44.36;99467.63;1784994;78;20196;-92
2021/05/14 06:36:07;;;;;;;42.20;15.18;;;;;;;21.45;43.82;99472.59;1775818;78;21048;-89
2021/05/14 06:38:34;;;;;;;42.50;13.48;;;;;;;21.70;43.34;99464.84;1784519;78;21035;-89
2021/05/14 06:41:01;;;;;;;31.73;11.12;;;;;;;21.95;41.91;99457.58;1797291;79;21053;-89
2021/05/14 06:43:27;;;;;;;;;;;;;;;21.95;41.13;99444.81;1743096;81;21102;-91
2021/05/14 06:45:53;;;;;;;9.15;5.35;;;;;;;21.67;41.91;99465.95;1740827;81;20496;-88
2021/05/14 06:48:20;;;;;;;23.70;8.65;;;;;;;21.49;42.80;99456.58;1747988;78;21043;-87
2021/05/14 06:50:47;;;;;;;28.80;9.08;;;;;;;21.60;42.27;99457.33;1747136;81;21114;-90
2021/05/14 06:53:13;;;;;;;;;;;;;;;21.78;41.47;99458.00;1761086;81;21358;-90
2021/05/14 06:55:39;;;;;;;22.62;7.58;;;;;;;21.84;41.86;99456.05;1781142;79;20282;-91
2021/05/14 06:58:06;;;;;;;19.48;6.22;;;;;;;21.87;41.56;99441.38;1748315;81;21083;-91
2021/05/14 07:00:33;;;;;;;8.45;4.60;;;;;;;21.85;41.77;99437.30;1751896;79;21142;-89
2021/05/14 07:03:00;;;;;;;17.67;6.58;;;;;;;21.70;41.54;99439.08;1768212;80;21175;-90
2021/05/14 07:05:26;;;;;;;16.05;5.78;;;;;;;21.50;42.21;99439.23;1768250;80;21123;-92
2021/05/14 07:07:53;;;;;;;17.67;7.35;;;;;;;21.38;42.51;99447.15;1762600;80;21031;-90
2021/05/14 07:10:22;;;;;;;13.20;5.60;;;;;;;21.22;42.63;99440.75;1741603;81;21138;-91
2021/05/14 07:12:48;;;;;;;19.60;7.83;;;;;;;21.12;43.01;99422.11;1780577;79;21182;-90
2021/05/14 07:15:14;;;;;;;;;;;;;;;21.05;43.17;99425.67;1749829;80;21101;-89
2021/05/14 07:17:43;;;;;;;18.10;9.83;;;;;;;21.14;43.74;99423.98;1785548;79;20202;-87
2021/05/14 07:20:10;;;;;;;14.90;5.97;;;;;;;21.35;44.22;99422.50;1784891;80;21051;-88
2021/05/14 07:22:37;;;;;;;27.25;8.48;;;;;;;21.48;43.03;99418.38;1795009;79;21119;-89
2021/05/14 07:25:04;;;;;;;6.92;4.67;;;;;;;21.42;42.30;99418.94;1753213;81;21125;-89
2021/05/14 07:27:31;;;;;;;11.15;4.60;;;;;;;21.28;42.29;99429.58;1774737;80;21152;-88
2021/05/14 07:29:59;;;;;;;6.65;2.58;;;;;;;20.93;42.49;99422.50;1772433;80;21683;-88
2021/05/14 07:32:25;;;;;;;3.45;2.98;;;;;;;20.60;43.38;99441.84;1776157;79;21066;-88
2021/05/14 07:34:52;;;;;;;16.00;5.33;;;;;;;20.48;43.69;99429.16;1771850;80;20977;-88
2021/05/14 07:37:19;;;;;;;27.93;8.63;;;;;;;20.32;44.26;99429.73;1788720;80;21068;-90
2021/05/14 07:39:45;;;;;;;7.55;4.33;;;;;;;20.13;44.68;99423.30;1781051;79;21063;-90
2021/05/14 07:42:12;;;;;;;4.58;3.17;;;;;;;19.93;45.29;99421.42;1775445;79;21158;-90
2021/05/14 07:44:40;;;;;;;8.40;3.98;;;;;;;19.74;46.02;99422.52;1787890;80;20999;-89
2021/05/14 07:47:08;;;;;;;7.78;3.50;;;;;;;19.63;46.57;99417.11;1795261;80;21810;-90
2021/05/14 07:49:34;;;;;;;9.63;3.83;;;;;;;19.71;46.84;99416.30;1761947;79;21786;-91
2021/05/14 07:52:00;;;;;;;;;;;;;;;19.87;46.05;99411.70;1767170;80;21229;-91
2021/05/14 07:54:30;;;;;;;32.10;9.45;;;;;;;20.02;45.16;99405.75;1766949;80;20228;-90
2021/05/14 07:56:56;;;;;;;14.18;4.90;;;;;;;20.15;45.36;99404.89;1748692;80;21132;-89
2021/05/14 07:59:22;;;;;;;;;;;;;;;20.28;45.94;99407.02;1753791;81;21063;-89
2021/05/14 08:01:48;;;;;;;6.00;4.60;;;;;;;20.34;45.66;99408.64;1764413;80;20234;-91
2021/05/14 08:04:15;;;;;;;7.15;2.98;;;;;;;20.36;45.93;99410.53;1754003;80;21309;-91
2021/05/14 08:06:41;;;;;;;;;;;;;;;20.38;45.17;99416.48;1766074;81;21050;-90
2021/05/14 08:09:10;;;;;;;7.12;2.02;;;;;;;20.40;44.74;99416.20;1768424;78;20168;-89
2021/05/14 08:11:35;;;;;;;6.87;4.20;;;;;;;20.34;44.96;99415.93;1727880;79;21012;-89
2021/05/14 08:14:01;;;;;;;;;;;;;;;20.32;45.56;99413.50;1763911;80;21591;-90
2021/05/14 08:16:27;;;;;;;13.53;4.90;;;;;;;20.35;44.45;99417.02;1767596;81;20231;-91
2021/05/14 08:18:53;;;;;;;21.55;6.25;;;;;;;20.34;43.95;99416.77;1766545;80;21155;-90
2021/05/14 08:21:20;;;;;;;;;;;;;;;20.40;43.40;99417.01;1779851;80;21214;-91
2021/05/14 08:23:46;;;;;;;12.10;5.15;;;;;;;20.29;44.15;99411.36;1758076;80;20200;-91
2021/05/14 08:26:13;;;;;;;18.25;6.83;;;;;;;20.07;44.80;99412.23;1742629;80;21024;-91
2021/05/14 08:28:39;;;;;;;7.60;3.50;;;;;;;20.02;44.71;99430.09;1780707;78;21069;-89
2021/05/14 08:31:06;;;;;;;4.22;2.92;;;;;;;20.08;44.67;99418.72;1776199;80;21152;-91
2021/05/14 08:33:32;;;;;;;12.20;4.03;;;;;;;20.12;44.49;99413.58;1773248;80;21064;-91
2021/05/14 08:36:00;;;;;;;9.03;4.05;;;;;;;20.12;44.76;99410.88;1737289;82;21104;-92
2021/05/14 08:38:26;;;;;;;;;;;;;;;20.08;44.54;99413.83;1754236;80;21043;-92
2021/05/14 08:40:56;;;;;;;19.55;7.03;;;;;;;20.07;44.62;99415.73;1752135;80;20193;-93
2021/05/14 08:43:22;;;;;;;41.37;12.13;;;;;;;20.01;45.16;99425.75;1714274;82;21084;-93
2021/05/14 08:45:50;;;;;;;18.17;5.55;;;;;;;20.02;44.99;99423.84;1739544;81;21077;-92
2021/05/14 08:48:17;;;;;;;13.30;3.90;;;;;;;19.96;45.39;99431.70;1837201;77;21059;-93
2021/05/14 08:50:43;;;;;;;6.20;2.67;;;;;;;19.89;44.52;99435.23;1825001;77;21099;-89
2021/05/14 08:53:10;;;;;;;4.22;2.40;;;;;;;19.82;44.35;99428.76;1806526;78;21039;-92
2021/05/14 08:55:37;;;;;;;4.33;1.80;;;;;;;19.74;44.70;99422.52;1805466;78;21485;-92
2021/05/14 08:58:04;;;;;;;5.53;2.75;;;;;;;19.69;45.28;99426.02;1812737;77;21088;-92
2021/05/14 09:00:31;;;;;;;3.70;3.12;;;;;;;19.67;45.66;99423.33;1794230;78;21079;-93
2021/05/14 09:02:56;;;;;;;;;;;;;;;19.63;46.17;99421.70;1742421;81;21111;-93
2021/05/14 09:05:34;;;;;;;6.30;4.70;;;;;;;19.54;46.25;99428.73;1768407;79;20214;-91
2021/05/14 09:08:03;;;;;;;6.85;5.10;;;;;;;19.50;46.60;99434.41;1754592;80;21126;-91
2021/05/14 09:10:35;;;;;;;4.75;4.35;;;;;;;19.48;46.56;99427.92;1753583;81;21155;-92
2021/05/14 09:13:12;;;;;;;4.40;3.20;;;;;;;19.51;46.54;99430.06;1817882;76;21620;-93
2021/05/14 09:15:41;;;;;;;6.28;4.83;;;;;;;19.52;46.23;99433.05;1816215;78;21055;-93
2021/05/14 09:18:19;;;;;;;3.60;3.02;;;;;;;19.55;46.46;99424.93;1793188;79;21120;-92
2021/05/14 09:20:58;;;;;;;6.97;3.70;;;;;;;19.61;46.32;99416.56;1771669;79;21143;-92
2021/05/14 09:23:40;;;;;;;3.90;3.62;;;;;;;19.76;46.14;99414.95;1741134;80;21028;-91
2021/05/14 09:26:12;;;;;;;6.87;3.15;;;;;;;19.80;45.85;99415.50;1757100;80;21104;-91
2021/05/14 09:28:47;;;;;;;8.50;4.00;;;;;;;19.88;45.66;99411.98;1778495;79;20996;-93
2021/05/14 09:31:19;;;;;;;3.85;3.55;;;;;;;19.86;45.47;99417.66;1748305;78;21060;-92
2021/05/14 09:33:49;;;;;;;5.05;3.35;;;;;;;19.84;45.55;99420.63;1751759;80;21032;-92
2021/05/14 09:36:24;;;;;;;3.77;3.20;;;;;;;19.83;45.94;99412.78;1722213;81;21760;-93
2021/05/14 09:38:58;;;;;;;4.28;3.47;;;;;;;19.84;45.42;99416.58;1741700;79;21080;-91
2021/05/14 09:41:34;;;;;;;3.08;2.80;;;;;;;19.83;45.13;99415.49;1735207;81;21060;-92
2021/05/14 09:44:10;;;;;;;4.20;3.80;;;;;;;19.83;45.81;99411.44;1763098;79;21069;-92
2021/05/14 09:46:47;;;;;;;7.15;4.53;;;;;;;19.80;46.42;99406.59;1760263;80;21039;-93
2021/05/14 09:49:18;;;;;;;9.15;3.67;;;;;;;19.79;46.62;99399.55;1763972;80;21070;-92
2021/05/14 09:52:05;;;;;;;8.60;4.05;;;;;;;19.79;46.66;99394.94;1759868;80;21594;-91
2021/05/14 09:54:40;;;;;;;6.10;3.95;;;;;;;19.77;47.58;99394.41;1748317;81;21147;-92
2021/05/14 09:57:18;;;;;;;4.58;3.98;;;;;;;19.71;47.68;99393.31;1738593;80;21710;-93
2021/05/14 09:59:47;;;;;;;4.40;4.00;;;;;;;19.68;47.84;99393.84;1779737;80;21400;-91
2021/05/14 10:02:24;;;;;;;3.98;3.67;;;;;;;19.65;48.28;99391.95;1760895;80;21110;-92
2021/05/14 10:04:53;;;;;;;6.37;3.83;;;;;;;19.62;48.35;99388.44;1751261;80;21188;-93
2021/05/14 10:07:20;;;;;;;7.05;3.87;;;;;;;19.63;48.41;99390.07;1778490;80;21061;-92
2021/05/14 10:09:52;;;;;;;4.75;3.95;;;;;;;19.63;48.77;99390.07;1765289;79;21347;-90
2021/05/14 10:12:19;;;;;;;4.70;3.80;;;;;;;19.59;49.44;99390.35;1742191;81;21116;-93
2021/05/14 10:14:47;;;;;;;6.37;3.10;;;;;;;19.54;49.43;99396.30;1752209;80;21725;-93
2021/05/14 10:17:14;;;;;;;4.42;2.60;;;;;;;19.44;50.09;99401.16;1741758;80;21098;-92
2021/05/14 10:19:43;;;;;;;3.00;2.52;;;;;;;19.26;50.22;99406.54;1770371;79;21098;-92
2021/05/14 10:22:11;;;;;;;2.80;1.87;;;;;;;19.06;50.51;99411.36;1749842;80;21198;-92
2021/05/14 10:24:46;;;;;;;2.62;2.30;;;;;;;18.86;50.62;99421.59;1801887;78;22197;-91
2021/05/14 10:27:21;;;;;;;3.45;2.08;;;;;;;18.71;51.21;99419.61;1790858;78;21015;-91
2021/05/14 10:29:50;;;;;;;4.53;1.90;;;;;;;18.63;51.07;99422.83;1788320;78;21139;-91
2021/05/14 10:32:18;;;;;;;3.22;1.95;;;;;;;18.58;51.74;99420.10;1766150;81;21151;-93
2021/05/14 10:34:45;;;;;;;3.12;2.83;;;;;;;18.52;51.78;99417.12;1751763;80;21359;-91
2021/05/14 10:37:13;;;;;;;4.85;2.58;;;;;;;18.39;50.32;99423.25;1787590;79;21536;-91
2021/05/14 10:39:41;;;;;;;4.53;2.58;;;;;;;18.30;50.03;99400.54;1750035;81;21692;-91
2021/05/14 10:42:12;;;;;;;3.60;2.05;;;;;;;18.13;50.14;99406.66;1814009;78;21637;-92
2021/05/14 10:44:44;;;;;;;3.22;2.67;;;;;;;18.03;51.59;99409.56;1802679;78;21051;-92
2021/05/14 10:47:26;;;;;;;3.00;2.80;;;;;;;17.95;52.22;99424.89;1828726;77;21100;-92
2021/05/14 10:50:03;;;;;;;3.10;2.77;;;;;;;17.87;53.21;99411.88;1785625;77;21184;-92
2021/05/14 10:52:30;;;;;;;5.10;3.40;;;;;;;17.80;53.00;99423.38;1813852;78;21083;-92
2021/05/14 10:54:56;;;;;;;3.72;3.37;;;;;;;17.80;53.00;99423.38;1812056;77;21043;-92
2021/05/14 10:57:47;;;;;;;3.72;3.08;;;;;;;17.82;52.53;99425.28;1835009;78;21009;-91
2021/05/14 11:00:32;;;;;;;6.15;3.42;;;;;;;17.79;52.69;99427.16;1814059;78;21062;-91
2021/05/14 11:03:17;;;;;;;3.22;2.80;;;;;;;17.82;51.96;99425.28;1824190;77;22269;-94
2021/05/14 11:05:52;;;;;;;6.27;2.57;;;;;;;17.88;52.96;99414.31;1811562;77;22434;-93
2021/05/14 11:08:38;;;;;;;2.92;2.60;;;;;;;18.00;51.36;99416.81;1786310;78;21221;-92
2021/05/14 11:11:12;;;;;;;4.90;2.50;;;;;;;18.05;51.12;99408.77;1818895;77;21228;-91
2021/05/14 11:13:53;;;;;;;3.37;1.67;;;;;;;18.05;51.12;99408.77;1791874;77;21130;-92
2021/05/14 11:16:45;;;;;;;2.42;2.22;;;;;;;18.06;50.69;99414.45;1816258;78;21059;-92
2021/05/14 11:19:28;;;;;;;2.50;2.20;;;;;;;18.06;50.69;99414.45;1813820;77;21606;-93
2021/05/14 11:22:13;;;;;;;2.62;1.62;;;;;;;18.13;49.77;99408.81;1835458;77;21110;-92
2021/05/14 11:25:07;;;;;;;3.20;2.02;;;;;;;18.26;49.90;99410.23;1831920;78;21675;-92
2021/05/14 11:27:35;;;;;;;5.37;2.60;;;;;;;18.31;49.80;99402.18;1828865;77;21084;-91
2021/05/14 11:30:15;;;;;;;5.08;2.20;;;;;;;18.31;49.68;99417.02;1825932;78;21112;-92
2021/05/14 11:32:48;;;;;;;4.55;2.60;;;;;;;18.39;49.76;99404.91;1829863;77;21180;-92
2021/05/14 11:35:19;;;;;;;12.00;2.75;;;;;;;18.46;48.95;99400.89;1836424;77;20992;-91
2021/05/14 11:38:01;;;;;;;2.20;2.08;;;;;;;18.55;49.88;99400.38;1810501;77;21063;-92
2021/05/14 11:40:31;;;;;;;2.27;2.08;;;;;;;18.66;48.66;99395.30;1827072;77;21104;-91
2021/05/14 11:43:11;;;;;;;4.97;2.70;;;;;;;18.66;48.66;99395.30;1788814;77;21601;-92
2021/05/14 11:45:42;;;;;;;3.55;2.20;;;;;;;18.68;49.36;99394.48;1827238;77;21306;-92
2021/05/14 11:48:22;;;;;;;2.22;2.00;;;;;;;18.70;48.70;99392.33;1818707;77;21102;-92